createdAt,value
2023-01-19T00:04:12.272Z,22.30
2023-01-19T00:09:15.027Z,22.00
2023-01-19T00:14:17.792Z,20.90
2023-01-19T00:19:20.540Z,17.40
2023-01-19T00:24:23.304Z,19.50
2023-01-19T00:29:27.772Z,19.20
2023-01-19T00:34:39.777Z,20.00
2023-01-19T00:39:43.602Z,19.00
2023-01-19T00:44:46.517Z,20.50
2023-01-19T00:49:49.223Z,19.00
2023-01-19T00:54:52.257Z,18.50
2023-01-19T00:59:55.293Z,18.70
2023-01-19T01:04:58.130Z,18.90
2023-01-19T01:10:01.578Z,18.90
2023-01-19T01:15:06.489Z,18.60
2023-01-19T01:20:10.304Z,18.30
2023-01-19T01:25:15.397Z,20.30
2023-01-19T01:30:19.588Z,20.90
2023-01-19T01:35:22.366Z,19.10
2023-01-19T01:40:25.093Z,18.60
2023-01-19T01:45:36.470Z,19.20
2023-01-19T01:51:05.831Z,19.80
2023-01-19T01:56:17.773Z,18.50
2023-01-19T02:01:39.527Z,18.30
2023-01-19T02:07:01.196Z,18.10
2023-01-19T02:12:22.865Z,18.40
2023-01-19T02:17:26.167Z,17.80
2023-01-19T02:22:36.270Z,18.20
2023-01-19T02:27:39.669Z,18.70
2023-01-19T02:32:43.168Z,18.00
2023-01-19T02:37:47.319Z,17.30
2023-01-19T02:42:52.313Z,19.80
2023-01-19T02:47:55.079Z,18.80
2023-01-19T02:53:19.539Z,18.20
2023-01-19T02:59:09.352Z,19.30
2023-01-19T03:04:31.654Z,18.50
2023-01-19T03:09:52.769Z,18.60
2023-01-19T03:15:01.204Z,19.70
2023-01-19T03:20:07.231Z,19.00
2023-01-19T03:25:10.339Z,20.20
2023-01-19T03:30:24.235Z,20.20
2023-01-19T03:35:31.912Z,19.50
2023-01-19T03:40:36.700Z,16.80
2023-01-19T03:45:40.119Z,18.40
2023-01-19T03:50:42.993Z,18.50
2023-01-19T03:55:48.415Z,17.70
2023-01-19T04:00:51.186Z,17.30
2023-01-19T04:05:56.408Z,18.50
2023-01-19T04:10:59.249Z,18.60
2023-01-19T04:16:04.114Z,18.70
2023-01-19T04:21:09.519Z,20.40
2023-01-19T04:26:13.080Z,22.50
2023-01-19T04:31:15.918Z,22.50
2023-01-19T04:36:18.755Z,21.60
2023-01-19T04:41:21.675Z,19.90
2023-01-19T04:46:24.467Z,21.90
2023-01-19T04:51:28.803Z,24.50
2023-01-19T04:56:31.542Z,25.20
2023-01-19T05:01:34.363Z,17.60
2023-01-19T05:06:37.554Z,20.50
2023-01-19T05:11:40.280Z,18.40
2023-01-19T05:16:43.081Z,17.80
2023-01-19T05:21:45.810Z,15.90
2023-01-19T05:26:48.576Z,16.80
2023-01-19T05:31:51.307Z,17.90
2023-01-19T05:36:54.172Z,18.30
2023-01-19T05:41:56.950Z,18.00
2023-01-19T05:47:00.769Z,18.50
2023-01-19T05:52:03.660Z,20.20
2023-01-19T05:57:08.911Z,19.20
2023-01-19T06:02:11.822Z,20.40
2023-01-19T06:07:14.654Z,19.00
2023-01-19T06:12:17.438Z,21.70
2023-01-19T06:17:20.659Z,24.40
2023-01-19T06:22:23.785Z,24.60
2023-01-19T06:27:26.635Z,24.40
2023-01-19T06:32:29.377Z,23.40
2023-01-19T06:37:32.220Z,22.30
2023-01-19T06:42:34.974Z,18.40
2023-01-19T06:47:37.828Z,16.90
2023-01-19T06:52:42.520Z,16.30
2023-01-19T06:57:46.177Z,17.00
2023-01-19T07:02:49.264Z,17.50
2023-01-19T07:07:54.055Z,18.00
2023-01-19T07:12:58.267Z,18.30
2023-01-19T07:18:05.674Z,18.70
2023-01-19T07:23:09.491Z,19.30
2023-01-19T07:28:15.734Z,20.80
2023-01-19T07:33:18.806Z,25.60
2023-01-19T07:38:23.016Z,16.40
2023-01-19T07:43:25.874Z,17.50
2023-01-19T07:48:29.154Z,20.60
2023-01-19T07:53:32.894Z,21.80
2023-01-19T07:58:35.852Z,16.50
2023-01-19T08:03:39.446Z,17.90
2023-01-19T08:08:42.281Z,18.80
2023-01-19T08:13:48.016Z,16.70
2023-01-19T08:18:50.877Z,17.60
2023-01-19T08:23:54.956Z,18.00
2023-01-19T08:29:01.074Z,19.40
2023-01-19T08:34:04.839Z,17.50
2023-01-19T08:39:12.342Z,18.30
2023-01-19T08:44:16.050Z,20.80
2023-01-19T08:49:18.921Z,20.00
2023-01-19T08:54:25.190Z,20.30
2023-01-19T08:59:40.634Z,19.70
2023-01-19T09:04:44.559Z,20.00
2023-01-19T09:09:47.828Z,19.00
2023-01-19T09:14:50.693Z,20.60
2023-01-19T09:19:54.193Z,21.30
2023-01-19T09:24:57.063Z,19.80
2023-01-19T09:29:59.897Z,21.60
2023-01-19T09:35:02.820Z,21.00
2023-01-19T09:40:07.067Z,25.20
2023-01-19T09:45:25.414Z,19.60
2023-01-19T09:50:34.198Z,21.40
2023-01-19T09:55:39.745Z,24.10
2023-01-19T10:01:25.194Z,24.10
2023-01-19T10:06:56.398Z,19.80
2023-01-19T10:12:22.325Z,23.30
2023-01-19T10:17:42.137Z,21.50
2023-01-19T10:22:49.716Z,20.90
2023-01-19T10:27:52.629Z,20.30
2023-01-19T10:32:55.471Z,15.70
2023-01-19T10:38:02.032Z,16.90
2023-01-19T10:43:41.333Z,15.90
2023-01-19T10:48:52.310Z,18.10
2023-01-19T10:54:03.997Z,19.80
2023-01-19T10:59:07.799Z,16.70
2023-01-19T11:04:28.894Z,17.30
2023-01-19T11:09:31.749Z,18.30
2023-01-19T11:14:34.697Z,15.60
2023-01-19T11:19:37.545Z,14.40
2023-01-19T11:24:40.486Z,16.20
2023-01-19T11:30:01.812Z,15.00
2023-01-19T11:35:41.174Z,18.30
2023-01-19T11:40:59.102Z,21.90
2023-01-19T11:46:03.107Z,19.30
2023-01-19T11:51:10.418Z,21.60
2023-01-19T11:56:15.664Z,27.20
2023-01-19T12:01:24.886Z,17.50
2023-01-19T12:06:41.467Z,18.40
2023-01-19T12:11:50.834Z,18.70
2023-01-19T12:16:58.125Z,17.10
2023-01-19T12:22:01.763Z,17.60
2023-01-19T12:27:18.497Z,15.80
2023-01-19T12:32:34.566Z,16.60
2023-01-19T12:37:41.303Z,16.60
2023-01-19T12:43:00.987Z,15.60
2023-01-19T12:48:04.922Z,17.90
2023-01-19T12:53:20.186Z,18.60
2023-01-19T12:58:25.291Z,17.90
2023-01-19T13:03:29.297Z,17.00
2023-01-19T13:08:57.253Z,18.80
2023-01-19T13:14:00.093Z,18.10
2023-01-19T13:19:06.333Z,21.70
2023-01-19T13:24:15.209Z,42.30
2023-01-19T13:29:46.026Z,22.40
2023-01-19T13:34:58.633Z,17.10
2023-01-19T13:40:02.845Z,16.70
2023-01-19T13:45:25.143Z,19.40
2023-01-19T13:50:33.902Z,15.60
2023-01-19T13:55:36.746Z,16.40
2023-01-19T14:00:46.092Z,18.30
2023-01-19T14:05:54.049Z,16.50
2023-01-19T14:10:56.815Z,17.80
2023-01-19T14:16:23.813Z,19.80
2023-01-19T14:21:38.315Z,21.50
2023-01-19T14:26:49.265Z,17.50
2023-01-19T14:32:00.935Z,17.90
2023-01-19T14:37:15.495Z,25.10
2023-01-19T14:43:20.237Z,19.40
2023-01-19T14:48:29.442Z,16.70
2023-01-19T14:53:37.197Z,18.60
2023-01-19T14:58:40.021Z,16.80
2023-01-19T15:03:45.178Z,15.70
2023-01-19T15:08:53.806Z,18.00
2023-01-19T15:14:04.402Z,22.10
2023-01-19T15:19:11.554Z,18.70
2023-01-19T15:29:26.312Z,23.80
2023-01-19T15:34:29.152Z,20.80
2023-01-19T15:39:32.614Z,19.20
2023-01-19T15:44:35.492Z,21.80
2023-01-19T15:49:38.470Z,21.20
2023-01-19T15:54:41.231Z,21.40
2023-01-19T15:59:44.174Z,17.50
2023-01-19T16:04:50.463Z,20.60
2023-01-19T16:09:53.330Z,16.00
2023-01-19T16:14:56.161Z,20.10
2023-01-19T16:19:59.201Z,17.30
2023-01-19T16:25:02.169Z,18.40
2023-01-19T16:30:07.441Z,19.10
2023-01-19T16:35:10.563Z,17.00
2023-01-19T16:40:13.537Z,20.10
2023-01-19T16:45:16.467Z,20.50
2023-01-19T16:50:19.634Z,20.90
2023-01-19T16:55:22.394Z,22.70
2023-01-19T17:00:25.351Z,16.40
2023-01-19T17:05:28.224Z,18.30
2023-01-19T17:10:31.413Z,18.90
2023-01-19T17:15:34.726Z,20.90
2023-01-19T17:20:37.579Z,24.60
2023-01-19T17:25:40.430Z,24.10
2023-01-19T17:30:43.307Z,27.80
2023-01-19T17:35:46.955Z,25.10
2023-01-19T17:40:50.011Z,23.80
2023-01-19T17:45:52.905Z,22.70
2023-01-19T17:51:02.343Z,23.40
2023-01-19T17:56:07.419Z,19.60
2023-01-19T18:01:16.232Z,21.70
2023-01-19T18:06:20.212Z,27.30
2023-01-19T18:11:23.395Z,21.60
2023-01-19T18:16:29.425Z,22.50
2023-01-19T18:21:32.241Z,19.00
2023-01-19T18:26:35.846Z,21.70
2023-01-19T18:31:38.868Z,19.20
2023-01-19T18:36:41.882Z,19.90
2023-01-19T18:41:44.767Z,16.50
2023-01-19T18:46:47.753Z,16.90
2023-01-19T18:51:50.486Z,22.80
2023-01-19T18:56:53.294Z,17.90
2023-01-19T19:01:56.178Z,20.30
2023-01-19T19:06:58.982Z,28.80
2023-01-19T19:12:01.830Z,29.10
2023-01-19T19:17:04.599Z,25.70
2023-01-19T19:22:07.438Z,28.40
2023-01-19T19:27:14.228Z,17.40
2023-01-19T19:32:20.511Z,22.50
2023-01-19T19:37:23.416Z,20.00
2023-01-19T19:42:26.350Z,18.70
2023-01-19T19:47:30.657Z,15.00
2023-01-19T19:52:41.049Z,16.40
2023-01-19T19:57:44.001Z,17.00
2023-01-19T20:02:46.809Z,17.50
2023-01-19T20:07:49.630Z,14.60
2023-01-19T20:12:52.445Z,13.10
2023-01-19T20:17:56.282Z,17.30
2023-01-19T20:23:02.302Z,16.60
2023-01-19T20:28:05.985Z,18.80
2023-01-19T20:33:08.787Z,19.30
2023-01-19T20:38:11.720Z,22.50
2023-01-19T20:43:14.916Z,23.80
2023-01-19T20:48:17.696Z,15.60
2023-01-19T20:53:20.577Z,17.30
2023-01-19T20:58:23.730Z,15.50
2023-01-19T21:03:26.435Z,11.80
2023-01-19T21:08:29.209Z,13.50
2023-01-19T21:13:32.415Z,10.50
2023-01-19T21:18:35.329Z,13.00
2023-01-19T21:23:38.082Z,10.50
2023-01-19T21:28:41.452Z,10.90
2023-01-19T21:33:44.313Z,12.10
2023-01-19T21:38:47.264Z,10.50
2023-01-19T21:43:50.059Z,13.30
2023-01-19T21:48:52.803Z,12.80
2023-01-19T21:53:59.667Z,11.60
2023-01-19T22:04:06.560Z,11.70
2023-01-19T22:09:09.317Z,14.30
2023-01-19T22:14:12.128Z,11.40
2023-01-19T22:19:14.840Z,13.10
2023-01-19T22:24:17.658Z,14.80
2023-01-19T22:29:20.408Z,14.90
2023-01-19T22:34:23.169Z,15.50
2023-01-19T22:39:25.944Z,15.20
2023-01-19T22:44:28.667Z,15.00
2023-01-19T22:49:31.400Z,14.40
2023-01-19T22:54:34.256Z,15.20
2023-01-19T22:59:36.977Z,12.60
2023-01-19T23:04:39.747Z,13.80
2023-01-19T23:09:42.723Z,14.80
2023-01-19T23:14:45.441Z,13.80
2023-01-19T23:19:48.201Z,12.60
2023-01-19T23:24:50.920Z,13.20
2023-01-19T23:29:53.668Z,14.10
2023-01-19T23:34:56.372Z,15.10
2023-01-19T23:39:59.108Z,15.70
2023-01-19T23:45:02.224Z,15.60
2023-01-19T23:50:07.711Z,18.00
2023-01-19T23:55:10.492Z,15.10
